Time;durP1;ratioP1;P1;durP2;ratioP2;P2;SDS_P1;SDS_P2;PMS_P1;PMS_P2;Temp;Humidity;BMP_temperature;BMP_pressure;BME280_temperature;BME280_humidity;BME280_pressure;Samples;Min_cycle;Max_cycle;Signal;HPM_P1;HPM_P2
2023/06/12 00:00:52;;;;;;;;;19.25;17.25;;;;;;;;5097198;27;29432;-74
2023/06/12 00:03:19;;;;;;;;;20.50;20.00;;;;;;;;5116704;27;28300;-74
2023/06/12 00:05:44;;;;;;;;;23.75;22.00;;;;;;;;5105079;27;28381;-74
2023/06/12 00:08:11;;;;;;;;;21.75;20.50;;;;;;;;5104067;27;28727;-74
2023/06/12 00:10:37;;;;;;;;;19.50;19.50;;;;;;;;5104558;27;28510;-74
2023/06/12 00:13:02;;;;;;;;;23.00;22.50;;;;;;;;5102859;27;28415;-74
2023/06/12 00:15:27;;;;;;;;;21.75;20.50;;;;;;;;5117734;27;28381;-74
2023/06/12 00:17:53;;;;;;;;;20.00;19.67;;;;;;;;5109922;27;28857;-74
2023/06/12 00:20:18;;;;;;;;;23.67;22.00;;;;;;;;5109910;27;28618;-74
2023/06/12 00:22:44;;;;;;;;;19.33;18.33;;;;;;;;5098166;27;28369;-74
2023/06/12 00:25:09;;;;;;;;;22.75;21.25;;;;;;;;5096415;27;28605;-74
2023/06/12 00:27:35;;;;;;;;;19.33;17.33;;;;;;;;5105728;27;28471;-74
2023/06/12 00:30:00;;;;;;;;;20.00;19.25;;;;;;;;5117378;27;28398;-74
2023/06/12 00:32:25;;;;;;;;;23.00;20.00;;;;;;;;5116423;27;28376;-74
2023/06/12 00:34:51;;;;;;;;;23.50;21.50;;;;;;;;5103974;27;28373;-74
2023/06/12 00:37:17;;;;;;;;;29.25;26.00;;;;;;;;5097452;27;28665;-74
2023/06/12 00:39:43;;;;;;;;;22.75;19.50;;;;;;;;5110385;27;28562;-74
2023/06/12 00:42:08;;;;;;;;;25.75;24.25;;;;;;;;5099966;27;28380;-74
2023/06/12 00:44:33;;;;;;;;;20.00;19.67;;;;;;;;5117278;27;28233;-74
2023/06/12 00:46:58;;;;;;;;;21.33;20.67;;;;;;;;5096761;27;29083;-74
2023/06/12 00:49:24;;;;;;;;;17.50;15.75;;;;;;;;5096321;28;28486;-74
2023/06/12 00:51:50;;;;;;;;;23.25;21.50;;;;;;;;5096411;27;28313;-74
2023/06/12 00:54:15;;;;;;;;;23.25;20.25;;;;;;;;5097628;27;28613;-75
2023/06/12 00:56:40;;;;;;;;;25.33;23.67;;;;;;;;5096159;27;28529;-74
2023/06/12 00:59:06;;;;;;;;;21.33;21.33;;;;;;;;5110701;27;28403;-74
2023/06/12 01:01:31;;;;;;;;;21.75;19.50;;;;;;;;5104146;27;28497;-74
2023/06/12 01:03:57;;;;;;;;;17.33;17.33;;;;;;;;5107328;27;28550;-74
2023/06/12 01:06:29;;;;;;;;;21.25;20.50;;;;;;;;5102961;27;28433;-74
2023/06/12 01:09:14;;;;;;;;;26.00;23.75;;;;;;;;5103281;27;28262;-74
2023/06/12 01:11:40;;;;;;;;;20.00;19.50;;;;;;;;5104144;27;28252;-75
2023/06/12 01:14:05;;;;;;;;;20.00;19.75;;;;;;;;5113781;27;28348;-75
2023/06/12 01:16:31;;;;;;;;;20.75;19.75;;;;;;;;5104070;27;28365;-74
2023/06/12 01:18:57;;;;;;;;;19.50;17.00;;;;;;;;5102867;27;29147;-74
2023/06/12 01:21:23;;;;;;;;;24.50;22.00;;;;;;;;5109506;27;28597;-75
2023/06/12 01:23:48;;;;;;;;;17.50;16.75;;;;;;;;5100698;27;28433;-74
2023/06/12 01:26:13;;;;;;;;;24.00;22.33;;;;;;;;5108823;27;28399;-75
2023/06/12 01:28:39;;;;;;;;;21.67;19.00;;;;;;;;5110192;27;29429;-75
2023/06/12 01:31:23;;;;;;;;;18.75;17.75;;;;;;;;5103561;27;28439;-75
2023/06/12 01:34:09;;;;;;;;;18.25;16.25;;;;;;;;5112667;27;28432;-75
2023/06/12 01:36:36;;;;;;;;;15.50;15.25;;;;;;;;5109249;27;28615;-75
2023/06/12 01:39:04;;;;;;;;;18.00;17.25;;;;;;;;5102508;27;30404;-75
2023/06/12 01:41:29;;;;;;;;;18.50;16.50;;;;;;;;5102063;27;28283;-75
2023/06/12 01:43:54;;;;;;;;;16.50;15.00;;;;;;;;5112521;27;28219;-75
2023/06/12 01:46:20;;;;;;;;;18.33;17.33;;;;;;;;5102631;27;28642;-75
2023/06/12 01:48:45;;;;;;;;;14.67;13.33;;;;;;;;5109044;27;28347;-75
2023/06/12 01:51:10;;;;;;;;;14.50;13.50;;;;;;;;5109186;27;28519;-75
2023/06/12 01:53:35;;;;;;;;;19.33;18.33;;;;;;;;5101570;27;28413;-75
2023/06/12 01:56:01;;;;;;;;;18.00;17.00;;;;;;;;5102373;27;28423;-75
2023/06/12 01:58:26;;;;;;;;;16.25;15.75;;;;;;;;5108384;27;28471;-75
2023/06/12 02:00:53;;;;;;;;;22.50;18.25;;;;;;;;5109292;27;28316;-75
2023/06/12 02:03:19;;;;;;;;;23.50;21.50;;;;;;;;5115120;27;28329;-75
2023/06/12 02:05:44;;;;;;;;;18.00;18.00;;;;;;;;5103634;27;28506;-75
2023/06/12 02:08:10;;;;;;;;;17.33;15.33;;;;;;;;5109093;27;29598;-75
2023/06/12 02:10:35;;;;;;;;;17.50;16.25;;;;;;;;5107519;27;28390;-75
2023/06/12 02:13:00;;;;;;;;;19.67;18.33;;;;;;;;5102247;27;28473;-75
2023/06/12 02:15:25;;;;;;;;;18.00;18.00;;;;;;;;5103490;27;28239;-75
2023/06/12 02:17:50;;;;;;;;;19.00;18.00;;;;;;;;5112703;27;28371;-75
2023/06/12 02:20:16;;;;;;;;;18.00;16.67;;;;;;;;5111040;27;28391;-75
2023/06/12 02:22:41;;;;;;;;;19.67;18.33;;;;;;;;5105846;27;28489;-75
2023/06/12 02:25:06;;;;;;;;;23.75;20.00;;;;;;;;5115309;27;28266;-75
2023/06/12 02:27:32;;;;;;;;;17.00;16.50;;;;;;;;5106187;27;28444;-75
2023/06/12 02:29:57;;;;;;;;;23.33;21.33;;;;;;;;5117315;27;28298;-75
2023/06/12 02:32:22;;;;;;;;;19.67;17.67;;;;;;;;5118804;27;28526;-74
2023/06/12 02:34:48;;;;;;;;;19.00;18.00;;;;;;;;5106683;27;28597;-75
2023/06/12 02:37:14;;;;;;;;;24.00;19.00;;;;;;;;5110724;27;29856;-75
2023/06/12 02:39:39;;;;;;;;;16.25;15.25;;;;;;;;5109537;27;28335;-76
2023/06/12 02:42:04;;;;;;;;;20.67;18.67;;;;;;;;5106121;27;28292;-76
2023/06/12 02:44:29;;;;;;;;;20.75;17.75;;;;;;;;5118073;27;28342;-76
2023/06/12 02:46:56;;;;;;;;;19.67;19.00;;;;;;;;5110537;27;28477;-76
2023/06/12 02:49:22;;;;;;;;;21.25;20.25;;;;;;;;5105402;27;28378;-76
2023/06/12 02:51:47;;;;;;;;;24.00;19.00;;;;;;;;5112461;27;28417;-76
2023/06/12 02:54:14;;;;;;;;;19.50;19.25;;;;;;;;5099574;27;28310;-76
2023/06/12 02:56:41;;;;;;;;;18.50;17.50;;;;;;;;5104867;27;28417;-76
2023/06/12 02:59:07;;;;;;;;;19.75;19.25;;;;;;;;5110378;27;27915;-76
2023/06/12 03:01:33;;;;;;;;;17.00;15.75;;;;;;;;5107752;27;28461;-76
2023/06/12 03:03:59;;;;;;;;;18.50;18.00;;;;;;;;5125224;27;28476;-75
2023/06/12 03:06:26;;;;;;;;;20.00;17.75;;;;;;;;5125344;27;8789;-76
2023/06/12 03:08:54;;;;;;;;;22.00;20.50;;;;;;;;5127459;27;8791;-76
2023/06/12 03:11:19;;;;;;;;;21.00;18.75;;;;;;;;5119100;27;28427;-76
2023/06/12 03:13:45;;;;;;;;;19.75;18.00;;;;;;;;5110474;27;28388;-76
2023/06/12 03:16:10;;;;;;;;;18.00;17.67;;;;;;;;5111539;27;28577;-76
2023/06/12 03:18:35;;;;;;;;;23.00;20.00;;;;;;;;5110291;27;28346;-76
2023/06/12 03:21:01;;;;;;;;;21.00;17.00;;;;;;;;5104558;27;28247;-76
2023/06/12 03:23:26;;;;;;;;;19.50;17.75;;;;;;;;5106311;27;28811;-76
2023/06/12 03:25:51;;;;;;;;;20.25;19.50;;;;;;;;5105223;27;29328;-76
2023/06/12 03:28:16;;;;;;;;;27.67;25.67;;;;;;;;5110481;27;28303;-76
2023/06/12 03:30:41;;;;;;;;;23.33;20.33;;;;;;;;5110033;27;28340;-76
2023/06/12 03:33:07;;;;;;;;;21.00;20.33;;;;;;;;5126262;27;11001;-75
2023/06/12 03:35:32;;;;;;;;;19.00;17.33;;;;;;;;5123133;27;22049;-75
2023/06/12 03:37:57;;;;;;;;;23.00;21.33;;;;;;;;5126145;27;24363;-75
2023/06/12 03:40:22;;;;;;;;;20.00;18.67;;;;;;;;5128178;27;27729;-75
2023/06/12 03:42:47;;;;;;;;;23.67;22.00;;;;;;;;5109481;27;28234;-76
2023/06/12 03:45:13;;;;;;;;;20.00;20.00;;;;;;;;5098717;27;28630;-75
2023/06/12 03:47:38;;;;;;;;;16.67;15.67;;;;;;;;5104715;27;28291;-75
2023/06/12 03:50:03;;;;;;;;;23.50;20.25;;;;;;;;5110630;27;28561;-75
2023/06/12 03:52:29;;;;;;;;;20.50;19.25;;;;;;;;5099329;27;28693;-75
2023/06/12 03:54:54;;;;;;;;;20.33;18.67;;;;;;;;5097312;27;28406;-75
2023/06/12 03:57:20;;;;;;;;;15.67;15.67;;;;;;;;5097095;27;28285;-76
2023/06/12 03:59:46;;;;;;;;;17.75;17.25;;;;;;;;5096872;27;28445;-76
2023/06/12 04:02:11;;;;;;;;;20.50;19.25;;;;;;;;5107609;27;28522;-75
2023/06/12 04:04:36;;;;;;;;;17.00;16.00;;;;;;;;5114505;27;28411;-76
2023/06/12 04:07:01;;;;;;;;;19.00;18.00;;;;;;;;5116165;27;28318;-75
2023/06/12 04:09:27;;;;;;;;;19.00;17.33;;;;;;;;5112248;27;28616;-75
2023/06/12 04:11:52;;;;;;;;;16.67;15.33;;;;;;;;5103080;27;45452;-74
2023/06/12 04:14:17;;;;;;;;;14.75;12.00;;;;;;;;5110719;27;28541;-75
2023/06/12 04:16:42;;;;;;;;;15.50;14.00;;;;;;;;5102123;27;28346;-74
2023/06/12 04:19:08;;;;;;;;;17.25;17.00;;;;;;;;5110919;27;28299;-74
2023/06/12 04:21:35;;;;;;;;;20.00;19.75;;;;;;;;5106523;27;28548;-74
2023/06/12 04:24:02;;;;;;;;;15.75;14.75;;;;;;;;5103684;27;28702;-75
2023/06/12 04:26:27;;;;;;;;;18.25;17.50;;;;;;;;5108559;27;28359;-74
2023/06/12 04:29:02;;;;;;;;;27.33;23.67;;;;;;;;5111944;27;28653;-74
2023/06/12 04:31:27;;;;;;;;;20.75;20.25;;;;;;;;5107515;27;28577;-75
2023/06/12 04:33:54;;;;;;;;;21.00;18.67;;;;;;;;5112893;27;28437;-74
2023/06/12 04:36:21;;;;;;;;;22.25;20.75;;;;;;;;5108132;27;28311;-74
2023/06/12 04:38:50;;;;;;;;;20.25;19.25;;;;;;;;5098358;27;28373;-74
2023/06/12 04:41:19;;;;;;;;;16.25;16.00;;;;;;;;5103832;27;28698;-75
2023/06/12 04:43:44;;;;;;;;;23.25;20.75;;;;;;;;5110243;27;28342;-74
2023/06/12 04:46:13;;;;;;;;;14.00;13.00;;;;;;;;5110872;27;45180;-73
2023/06/12 04:48:41;;;;;;;;;20.75;19.75;;;;;;;;5124021;27;9645;-73
2023/06/12 04:51:06;;;;;;;;;14.50;13.50;;;;;;;;5124189;27;8803;-74
2023/06/12 04:53:32;;;;;;;;;16.67;16.67;;;;;;;;5131121;27;8906;-74
2023/06/12 04:55:58;;;;;;;;;21.50;18.25;;;;;;;;5130578;27;11481;-74
2023/06/12 04:58:23;;;;;;;;;16.00;15.50;;;;;;;;5124273;27;9697;-73
2023/06/12 05:00:49;;;;;;;;;17.00;15.33;;;;;;;;5124958;27;8779;-74
2023/06/12 05:03:16;;;;;;;;;19.25;17.75;;;;;;;;5135943;27;11411;-74
2023/06/12 05:05:41;;;;;;;;;18.25;17.25;;;;;;;;5125210;27;8867;-74
2023/06/12 05:08:06;;;;;;;;;15.25;15.25;;;;;;;;5130577;27;8798;-74
2023/06/12 05:10:32;;;;;;;;;19.33;18.00;;;;;;;;5109781;27;28561;-73
2023/06/12 05:12:57;;;;;;;;;18.33;17.00;;;;;;;;5109222;27;28346;-73
2023/06/12 05:15:22;;;;;;;;;15.50;15.00;;;;;;;;5110300;27;43097;-73
2023/06/12 05:17:47;;;;;;;;;14.00;13.67;;;;;;;;5104097;27;44810;-74
2023/06/12 05:20:13;;;;;;;;;14.00;13.00;;;;;;;;5122304;27;27679;-75
2023/06/12 05:22:38;;;;;;;;;15.75;15.25;;;;;;;;5111871;27;28400;-74
2023/06/12 05:25:04;;;;;;;;;15.50;13.00;;;;;;;;5110096;27;28396;-74
2023/06/12 05:27:29;;;;;;;;;13.25;11.75;;;;;;;;5104897;27;28350;-74
2023/06/12 05:29:54;;;;;;;;;14.75;11.50;;;;;;;;5105035;27;28655;-74
2023/06/12 05:32:19;;;;;;;;;13.00;11.75;;;;;;;;5109427;27;28431;-74
2023/06/12 05:34:45;;;;;;;;;12.00;12.00;;;;;;;;5107293;27;28504;-74
2023/06/12 05:37:10;;;;;;;;;14.75;13.75;;;;;;;;5102752;27;28850;-74
2023/06/12 05:39:35;;;;;;;;;12.00;10.67;;;;;;;;5120835;27;29663;-73
2023/06/12 05:42:00;;;;;;;;;9.25;9.25;;;;;;;;4557094;27;2814420;-74
2023/06/12 05:44:26;;;;;;;;;13.33;12.67;;;;;;;;5044446;27;357162;-74
2023/06/12 05:46:52;;;;;;;;;13.67;12.00;;;;;;;;5028862;27;796464;-74
2023/06/12 05:49:17;;;;;;;;;11.25;11.00;;;;;;;;5003747;27;341824;-74
2023/06/12 05:51:43;;;;;;;;;14.33;13.00;;;;;;;;4943515;27;848502;-73
2023/06/12 05:54:08;;;;;;;;;9.50;8.00;;;;;;;;3161128;27;24117768;-74
2023/06/12 05:56:33;;;;;;;;;12.50;11.75;;;;;;;;4255988;27;1716675;-74
2023/06/12 05:58:58;;;;;;;;;12.75;11.50;;;;;;;;3849601;27;7363422;-73
2023/06/12 06:01:25;;;;;;;;;8.00;8.00;;;;;;;;3951942;27;2839527;-72
2023/06/12 06:03:50;;;;;;;;;13.33;13.00;;;;;;;;4014030;27;2707224;-73
2023/06/12 06:06:16;;;;;;;;;13.25;11.75;;;;;;;;3370997;27;12791787;-72
2023/06/12 06:08:51;;;;;;;;;;;;;;;;;;3383542;27;36557112;-73
2023/06/12 06:11:17;;;;;;;;;11.00;9.80;;;;;;;;4024098;27;3340343;-73
2023/06/12 06:13:43;;;;;;;;;12.00;10.25;;;;;;;;4226661;27;2115390;-73
2023/06/12 06:16:10;;;;;;;;;14.00;11.75;;;;;;;;4099103;27;9437783;-74
2023/06/12 06:18:35;;;;;;;;;10.50;8.75;;;;;;;;4513068;27;1584361;-74
2023/06/12 06:21:01;;;;;;;;;17.25;17.25;;;;;;;;4237264;27;3603393;-74
2023/06/12 06:23:26;;;;;;;;;12.25;9.75;;;;;;;;4104485;27;4193603;-74
2023/06/12 06:25:51;;;;;;;;;14.33;10.33;;;;;;;;4104741;27;4960055;-73
2023/06/12 06:28:16;;;;;;;;;13.75;13.25;;;;;;;;3859093;27;5695788;-73
2023/06/12 06:30:41;;;;;;;;;13.50;12.75;;;;;;;;4291185;27;1972794;-73
2023/06/12 06:33:07;;;;;;;;;13.00;12.00;;;;;;;;4042360;27;4372346;-76
2023/06/12 06:35:32;;;;;;;;;11.75;9.50;;;;;;;;4898218;27;2774812;-76
2023/06/12 06:37:57;;;;;;;;;10.75;10.00;;;;;;;;3968559;27;18153835;-75
2023/06/12 06:40:23;;;;;;;;;8.50;8.00;;;;;;;;4436632;27;9686989;-75
2023/06/12 06:42:48;;;;;;;;;13.25;11.75;;;;;;;;4229422;27;4979972;-73
2023/06/12 06:45:13;;;;;;;;;9.75;9.50;;;;;;;;4391774;27;10277682;-80
2023/06/12 06:47:39;;;;;;;;;15.00;13.25;;;;;;;;4326958;27;6915655;-73
2023/06/12 06:50:04;;;;;;;;;12.75;11.00;;;;;;;;4855186;27;4582403;-74
2023/06/12 06:52:35;;;;;;;;;13.67;9.67;;;;;;;;3254904;27;23120303;-74
2023/06/12 06:55:01;;;;;;;;;13.20;12.60;;;;;;;;4382925;27;3428344;-77
2023/06/12 06:57:26;;;;;;;;;15.50;13.50;;;;;;;;4370016;27;1746284;-73
2023/06/12 06:59:54;;;;;;;;;11.50;9.25;;;;;;;;4125435;27;1860232;-74
2023/06/12 07:02:20;;;;;;;;;12.00;11.00;;;;;;;;4111370;27;2127260;-72
2023/06/12 07:04:45;;;;;;;;;12.00;10.50;;;;;;;;3845852;27;2725698;-75
2023/06/12 07:07:10;;;;;;;;;13.00;12.00;;;;;;;;3910366;27;5114162;-74
2023/06/12 07:09:35;;;;;;;;;11.50;9.75;;;;;;;;4407317;27;1909633;-73
2023/06/12 07:12:01;;;;;;;;;13.00;11.25;;;;;;;;3983378;27;4171104;-74
2023/06/12 07:14:26;;;;;;;;;8.33;8.00;;;;;;;;4146811;27;4237491;-73
2023/06/12 07:16:51;;;;;;;;;11.75;8.75;;;;;;;;4189499;27;1779005;-74
2023/06/12 07:19:16;;;;;;;;;10.25;10.25;;;;;;;;4084437;27;8637412;-73
2023/06/12 07:21:41;;;;;;;;;12.25;11.75;;;;;;;;4354665;27;2087495;-75
2023/06/12 07:24:07;;;;;;;;;7.25;6.75;;;;;;;;4061615;27;16072446;-74
2023/06/12 07:26:32;;;;;;;;;12.67;11.00;;;;;;;;4597626;27;1245125;-72
2023/06/12 07:28:57;;;;;;;;;10.00;8.75;;;;;;;;4270119;27;3150780;-75
2023/06/12 07:31:23;;;;;;;;;11.00;9.00;;;;;;;;4061513;27;3114757;-74
2023/06/12 07:33:49;;;;;;;;;10.80;10.80;;;;;;;;3567359;27;6876335;-76
2023/06/12 07:36:17;;;;;;;;;10.25;9.25;;;;;;;;3944417;27;2327574;-77
2023/06/12 07:38:42;;;;;;;;;11.00;10.50;;;;;;;;1678316;27;44101934;-74
2023/06/12 07:41:08;;;;;;;;;7.75;7.50;;;;;;;;2372516;27;19958211;-73
2023/06/12 07:43:53;;;;;;;;;7.50;7.50;;;;;;;;3061804;27;25006680;-73
2023/06/12 07:46:18;;;;;;;;;9.60;9.40;;;;;;;;1348904;27;23082581;-73
2023/06/12 07:48:43;;;;;;;;;10.67;10.33;;;;;;;;1193374;27;35824213;-72
2023/06/12 07:51:09;;;;;;;;;9.20;8.80;;;;;;;;2425552;27;10049448;-75
2023/06/12 07:54:13;;;;;;;;;2.00;2.00;;;;;;;;1712606;27;48555451;-75
2023/06/12 07:56:46;;;;;;;;;;;;;;;;;;802130;27;31800690;-75
2023/06/12 07:59:35;;;;;;;;;13.00;13.00;;;;;;;;1813682;27;20747116;-75
2023/06/12 08:02:02;;;;;;;;;9.00;9.00;;;;;;;;1981740;27;18366757;-76
2023/06/12 08:04:29;;;;;;;;;20.00;18.00;;;;;;;;1626289;27;21983476;-74
2023/06/12 08:06:55;;;;;;;;;8.33;8.33;;;;;;;;2640045;27;15855920;-74
2023/06/12 08:09:21;;;;;;;;;13.40;13.40;;;;;;;;2148362;27;11212970;-74
2023/06/12 08:11:46;;;;;;;;;9.00;8.00;;;;;;;;2133015;27;9455608;-74
2023/06/12 08:14:12;;;;;;;;;15.00;12.67;;;;;;;;2023458;27;8474447;-74
2023/06/12 08:16:55;;;;;;;;;10.67;8.50;;;;;;;;1944251;27;17087929;-76
2023/06/12 08:19:20;;;;;;;;;8.00;8.00;;;;;;;;1211867;27;30922755;-74
2023/06/12 08:21:46;;;;;;;;;10.67;9.67;;;;;;;;933586;27;59659758;-75
2023/06/12 08:24:14;;;;;;;;;;;;;;;;;;1155815;27;26797566;-75
2023/06/12 08:26:39;;;;;;;;;12.00;11.00;;;;;;;;555141;27;104597965;-76
2023/06/12 08:29:06;;;;;;;;;14.00;13.00;;;;;;;;1707110;27;18870341;-73
2023/06/12 08:31:33;;;;;;;;;10.00;9.67;;;;;;;;1570536;27;20408187;-72
2023/06/12 08:34:34;;;;;;;;;;;;;;;;;;920554;27;63179586;-72
2023/06/12 08:37:32;;;;;;;;;11.50;11.50;;;;;;;;166037;27;111724707;-72
2023/06/12 08:39:58;;;;;;;;;13.50;12.50;;;;;;;;1666080;27;19109283;-72
2023/06/12 08:42:23;;;;;;;;;11.00;10.33;;;;;;;;1489620;27;21259770;-75
2023/06/12 08:44:58;;;;;;;;;;;;;;;;;;609898;27;53649828;-72
2023/06/12 08:47:33;;;;;;;;;20.50;20.50;;;;;;;;90173;27;135060085;-69
2023/06/12 08:50:05;;;;;;;;;11.00;9.00;;;;;;;;1273699;27;41589272;-70
2023/06/12 08:52:34;;;;;;;;;19.50;15.00;;;;;;;;1316619;27;33665129;-70
2023/06/12 08:55:03;;;;;;;;;10.33;9.33;;;;;;;;2250501;27;12693253;-68
2023/06/12 08:57:28;;;;;;;;;20.80;17.20;;;;;;;;3200018;27;5473886;-68
2023/06/12 08:59:53;;;;;;;;;17.50;14.00;;;;;;;;2107585;27;13059075;-72
2023/06/12 09:02:24;;;;;;;;;11.50;11.50;;;;;;;;2258960;27;13183299;-73
2023/06/12 09:04:59;;;;;;;;;12.40;11.80;;;;;;;;3071541;27;5637874;-76
2023/06/12 09:07:25;;;;;;;;;6.50;6.50;;;;;;;;1809625;27;26585501;-72
2023/06/12 09:09:50;;;;;;;;;10.40;8.60;;;;;;;;1815482;27;15453000;-72
2023/06/12 09:12:15;;;;;;;;;14.20;12.40;;;;;;;;2073102;27;16204255;-76
2023/06/12 09:14:45;;;;;;;;;15.00;12.50;;;;;;;;2450435;27;9169221;-79
2023/06/12 09:17:13;;;;;;;;;21.50;21.25;;;;;;;;2361794;27;8203392;-75
2023/06/12 09:19:40;;;;;;;;;15.00;15.00;;;;;;;;2992506;27;5396639;-74
2023/06/12 09:22:06;;;;;;;;;19.00;15.00;;;;;;;;2332425;27;8942016;-73
2023/06/12 09:24:31;;;;;;;;;16.60;14.60;;;;;;;;3329683;27;4944194;-73
2023/06/12 09:26:57;;;;;;;;;19.33;19.00;;;;;;;;3274209;27;4349959;-79
2023/06/12 09:29:42;;;;;;;;;16.25;15.50;;;;;;;;3673187;27;5837392;-72
2023/06/12 09:32:09;;;;;;;;;14.33;14.00;;;;;;;;4380888;27;1604963;-73
2023/06/12 09:34:34;;;;;;;;;22.00;20.75;;;;;;;;4229569;27;4972229;-72
2023/06/12 09:37:00;;;;;;;;;17.33;16.67;;;;;;;;4065794;27;3126747;-73
2023/06/12 09:39:26;;;;;;;;;24.00;22.00;;;;;;;;3655923;27;2832983;-70
2023/06/12 09:41:51;;;;;;;;;21.25;20.00;;;;;;;;4270818;27;3484695;-69
2023/06/12 09:44:23;;;;;;;;;15.00;14.00;;;;;;;;3630967;27;16246018;-70
2023/06/12 09:46:52;;;;;;;;;17.00;15.00;;;;;;;;3380774;27;22916882;-70
2023/06/12 09:49:19;;;;;;;;;16.50;15.25;;;;;;;;4146865;27;4145332;-68
2023/06/12 09:51:47;;;;;;;;;16.50;15.50;;;;;;;;4137361;27;6916627;-67
2023/06/12 09:54:15;;;;;;;;;16.75;16.00;;;;;;;;4069060;27;8051148;-71
2023/06/12 09:56:41;;;;;;;;;18.67;17.67;;;;;;;;2917308;27;11492430;-68
2023/06/12 09:59:08;;;;;;;;;18.50;16.75;;;;;;;;3686972;27;4229473;-70
2023/06/12 10:01:37;;;;;;;;;20.00;18.00;;;;;;;;3232190;27;7002887;-69
2023/06/12 10:04:02;;;;;;;;;13.50;13.00;;;;;;;;3524339;27;4556007;-70
2023/06/12 10:06:30;;;;;;;;;17.00;16.00;;;;;;;;2214360;27;10333280;-71
2023/06/12 10:08:58;;;;;;;;;24.00;22.50;;;;;;;;1606011;27;39011187;-71
2023/06/12 10:13:19;;;;;;;;;;;;;;;;;;243306;27;135060997;-70
2023/06/12 10:16:42;;;;;;;;;8.50;8.50;;;;;;;;163817;27;71723410;-70
2023/06/12 10:20:11;;;;;;;;;17.00;15.50;;;;;;;;503275;27;73750138;-70
2023/06/12 10:24:41;;;;;;;;;10.00;10.00;;;;;;;;516139;27;67397756;-68
2023/06/12 10:30:59;;;;;;;;;14.00;14.00;;;;;;;;3;99936388;141482653;-69
2023/06/12 10:38:49;;;;;;;;;;;;;;;;;;2;235211916;235211916;-70
2023/06/12 10:45:25;;;;;;;;;21.50;21.50;;;;;;;;2;184503494;184503494;-70
2023/06/12 10:53:14;;;;;;;;;26.00;21.50;;;;;;;;2;209784145;209784145;-68
2023/06/12 10:59:35;;;;;;;;;13.00;13.00;;;;;;;;2;185641849;185641849;-69
2023/06/12 11:07:17;;;;;;;;;16.00;16.00;;;;;;;;2;215890398;215890398;-68
2023/06/12 11:14:03;;;;;;;;;12.00;12.00;;;;;;;;2;202518690;202518690;-68
2023/06/12 11:20:07;;;;;;;;;13.50;13.50;;;;;;;;2;189317594;189317594;-68
2023/06/12 11:25:42;;;;;;;;;14.00;14.00;;;;;;;;2;173767990;173767990;-69
2023/06/12 11:32:09;;;;;;;;;21.50;21.50;;;;;;;;2;207703063;207703063;-69
2023/06/12 11:39:26;;;;;;;;;14.50;14.50;;;;;;;;2;229727576;229727576;-69
2023/06/12 11:47:45;;;;;;;;;17.50;17.50;;;;;;;;2;244330096;244330096;-68
2023/06/12 11:55:17;;;;;;;;;17.00;15.00;;;;;;;;2;237778836;237778836;-68
2023/06/12 12:03:16;;;;;;;;;27.00;22.50;;;;;;;;2;245231755;245231755;-68
2023/06/12 12:10:11;;;;;;;;;17.00;16.00;;;;;;;;2;213108352;213108352;-67
2023/06/12 12:18:41;;;;;;;;;20.00;18.00;;;;;;;;2;244503026;244503026;-68
2023/06/12 12:26:08;;;;;;;;;20.00;20.00;;;;;;;;2;229932356;229932356;-68
2023/06/12 12:32:34;;;;;;;;;23.50;16.50;;;;;;;;2;262013513;262013513;-68
2023/06/12 12:34:59;;;;;;;;;27.75;27.00;;;;;;;;5079809;27;258696;-68
2023/06/12 12:37:25;;;;;;;;;20.50;19.25;;;;;;;;5092968;27;45375;-68
2023/06/12 12:39:50;;;;;;;;;22.75;22.75;;;;;;;;5093968;27;45151;-68
2023/06/12 12:42:15;;;;;;;;;26.33;24.33;;;;;;;;5088205;27;45272;-68
2023/06/12 12:44:41;;;;;;;;;23.25;21.75;;;;;;;;5099263;27;45287;-69
2023/06/12 12:47:06;;;;;;;;;22.67;20.67;;;;;;;;5093191;27;45254;-68
2023/06/12 12:49:31;;;;;;;;;26.50;24.25;;;;;;;;5093566;27;45350;-68
2023/06/12 12:51:56;;;;;;;;;26.33;25.33;;;;;;;;5087990;27;46552;-68
2023/06/12 12:54:22;;;;;;;;;20.67;20.33;;;;;;;;5086844;27;45219;-68
2023/06/12 12:56:48;;;;;;;;;27.25;25.75;;;;;;;;5094611;27;45259;-68
2023/06/12 12:59:13;;;;;;;;;26.00;22.75;;;;;;;;5090487;27;46246;-68
2023/06/12 13:01:38;;;;;;;;;27.33;23.00;;;;;;;;5081301;27;45346;-67
2023/06/12 13:04:04;;;;;;;;;27.00;24.33;;;;;;;;5080041;27;45362;-68
2023/06/12 13:06:29;;;;;;;;;21.00;19.50;;;;;;;;5093571;27;45291;-67
2023/06/12 13:08:54;;;;;;;;;22.75;21.75;;;;;;;;5092270;27;45452;-67
2023/06/12 13:11:19;;;;;;;;;24.00;22.00;;;;;;;;5086325;27;46194;-67
2023/06/12 13:13:45;;;;;;;;;23.00;23.00;;;;;;;;5088170;27;45206;-67
2023/06/12 13:16:10;;;;;;;;;22.00;21.67;;;;;;;;5093617;27;45359;-67
2023/06/12 13:18:35;;;;;;;;;23.67;22.33;;;;;;;;5091966;27;45714;-67
2023/06/12 13:21:01;;;;;;;;;30.25;28.25;;;;;;;;5086056;27;45463;-67
2023/06/12 13:23:27;;;;;;;;;19.75;19.00;;;;;;;;5088261;27;45622;-66
2023/06/12 13:25:53;;;;;;;;;18.25;18.00;;;;;;;;5093307;27;45837;-67
2023/06/12 13:28:18;;;;;;;;;22.50;19.75;;;;;;;;5092794;27;45403;-67
2023/06/12 13:30:44;;;;;;;;;20.00;18.50;;;;;;;;5086271;27;46481;-67
2023/06/12 13:33:10;;;;;;;;;20.00;18.75;;;;;;;;5099039;27;45356;-68
2023/06/12 13:35:35;;;;;;;;;18.25;17.25;;;;;;;;5090036;27;45761;-66
2023/06/12 13:38:00;;;;;;;;;23.25;22.00;;;;;;;;5100080;27;45592;-67
2023/06/12 13:40:25;;;;;;;;;22.00;21.00;;;;;;;;5093147;27;46926;-67
2023/06/12 13:42:51;;;;;;;;;21.67;20.67;;;;;;;;5091671;27;45254;-67
2023/06/12 13:45:16;;;;;;;;;26.75;23.75;;;;;;;;5086283;27;45409;-67
2023/06/12 13:47:42;;;;;;;;;25.25;23.50;;;;;;;;5086410;27;45469;-67
2023/06/12 13:50:10;;;;;;;;;19.75;19.00;;;;;;;;5092819;27;45266;-67
2023/06/12 13:52:35;;;;;;;;;22.25;19.75;;;;;;;;5091871;27;45325;-68
2023/06/12 13:55:00;;;;;;;;;21.50;21.00;;;;;;;;5086005;27;45484;-68
2023/06/12 13:57:26;;;;;;;;;22.67;22.00;;;;;;;;5099622;27;45472;-68
2023/06/12 13:59:51;;;;;;;;;18.67;18.67;;;;;;;;5085716;27;45570;-67
2023/06/12 14:02:16;;;;;;;;;15.25;15.25;;;;;;;;5088868;27;45292;-67
2023/06/12 14:04:41;;;;;;;;;19.00;18.33;;;;;;;;5092859;27;45607;-67
2023/06/12 14:07:06;;;;;;;;;18.33;17.33;;;;;;;;5090139;27;45433;-67
2023/06/12 14:09:32;;;;;;;;;20.33;20.33;;;;;;;;5085877;27;46366;-67
2023/06/12 14:11:57;;;;;;;;;20.67;20.67;;;;;;;;5099708;27;45244;-67
2023/06/12 14:14:22;;;;;;;;;18.33;18.00;;;;;;;;5099161;27;45243;-68
2023/06/12 14:16:47;;;;;;;;;24.00;24.00;;;;;;;;5092100;27;45467;-67
2023/06/12 14:19:13;;;;;;;;;24.25;22.00;;;;;;;;5088944;27;46699;-67
2023/06/12 14:21:38;;;;;;;;;20.75;19.25;;;;;;;;5092269;27;45352;-69
2023/06/12 14:24:03;;;;;;;;;23.67;22.33;;;;;;;;5096197;27;45319;-70
2023/06/12 14:26:29;;;;;;;;;18.25;16.50;;;;;;;;5093436;27;45350;-70
2023/06/12 14:28:55;;;;;;;;;17.75;17.00;;;;;;;;5098499;27;45354;-69
2023/06/12 14:31:20;;;;;;;;;22.00;21.00;;;;;;;;5091845;27;45447;-68
2023/06/12 14:33:46;;;;;;;;;16.50;15.75;;;;;;;;5098680;27;45163;-68
2023/06/12 14:36:11;;;;;;;;;18.67;18.67;;;;;;;;5086895;27;45672;-69
2023/06/12 14:38:36;;;;;;;;;18.75;17.25;;;;;;;;5094195;27;47320;-69
2023/06/12 14:41:01;;;;;;;;;21.67;21.33;;;;;;;;5093099;27;45200;-69
2023/06/12 14:43:26;;;;;;;;;14.75;14.75;;;;;;;;5089110;27;45247;-70
2023/06/12 14:45:52;;;;;;;;;18.67;18.00;;;;;;;;5091569;27;45343;-70
2023/06/12 14:48:18;;;;;;;;;18.67;18.00;;;;;;;;5095522;27;45427;-70
2023/06/12 14:50:43;;;;;;;;;24.50;21.75;;;;;;;;5093363;27;45332;-68
2023/06/12 14:53:09;;;;;;;;;17.25;16.00;;;;;;;;5096968;27;45275;-68
2023/06/12 14:55:36;;;;;;;;;16.75;16.75;;;;;;;;5092918;27;45450;-69
2023/06/12 14:58:01;;;;;;;;;16.50;15.25;;;;;;;;5098707;27;48370;-69
2023/06/12 15:00:26;;;;;;;;;19.00;17.75;;;;;;;;5086226;27;45448;-69
2023/06/12 15:02:52;;;;;;;;;19.00;18.00;;;;;;;;5091918;27;45274;-69
2023/06/12 15:05:17;;;;;;;;;15.25;15.25;;;;;;;;5088196;27;45340;-68
2023/06/12 15:07:42;;;;;;;;;20.33;19.67;;;;;;;;5094235;27;47164;-69
2023/06/12 15:10:07;;;;;;;;;17.75;14.75;;;;;;;;5096369;27;45419;-68
2023/06/12 15:12:33;;;;;;;;;17.00;16.75;;;;;;;;5092389;27;45378;-68
2023/06/12 15:14:58;;;;;;;;;22.50;21.25;;;;;;;;5097393;27;45368;-68
2023/06/12 15:17:23;;;;;;;;;18.67;17.67;;;;;;;;5090378;27;46320;-68
2023/06/12 15:19:52;;;;;;;;;20.67;19.33;;;;;;;;5088038;27;45236;-68
2023/06/12 15:22:17;;;;;;;;;20.75;20.25;;;;;;;;5098098;27;45294;-68
2023/06/12 15:24:42;;;;;;;;;18.25;17.25;;;;;;;;5088313;27;45448;-68
2023/06/12 15:27:08;;;;;;;;;19.67;18.67;;;;;;;;5095274;27;46478;-69
2023/06/12 15:29:33;;;;;;;;;19.00;18.33;;;;;;;;5089156;27;45374;-69
2023/06/12 15:32:04;;;;;;;;;17.00;17.00;;;;;;;;5092904;27;45783;-69
2023/06/12 15:34:29;;;;;;;;;20.75;20.00;;;;;;;;5088968;27;45480;-68